Time;durP1;ratioP1;P1;durP2;ratioP2;P2;SDS_P1;SDS_P2;PMS_P1;PMS_P2;Temp;Humidity;BMP_temperature;BMP_pressure;BME280_temperature;BME280_humidity;BME280_pressure;Samples;Min_cycle;Max_cycle;Signal;HPM_P1;HPM_P2
2022/10/21 00:01:01;;;;;;;19.30;14.17;;;;;;;13.24;100.00;100613.94;5007776;29;20133;-74
2022/10/21 00:03:33;;;;;;;23.27;15.17;;;;;;;13.22;100.00;100625.38;5007949;29;20043;-74
2022/10/21 00:06:05;;;;;;;19.33;14.83;;;;;;;13.14;100.00;100617.72;5007186;29;20119;-75
2022/10/21 00:08:37;;;;;;;20.65;14.45;;;;;;;13.10;100.00;100609.06;5007859;29;20043;-74
2022/10/21 00:11:09;;;;;;;24.08;16.45;;;;;;;12.97;100.00;100609.44;5008657;29;20468;-74
2022/10/21 00:13:40;;;;;;;22.73;14.03;;;;;;;13.06;100.00;100611.81;5006362;29;20053;-74
2022/10/21 00:16:15;;;;;;;19.03;14.17;;;;;;;12.96;100.00;100613.81;5008310;29;20444;-75
2022/10/21 00:18:48;;;;;;;16.63;14.52;;;;;;;12.93;100.00;100608.66;5007474;29;20544;-74
2022/10/21 00:21:20;;;;;;;21.33;15.07;;;;;;;12.94;100.00;100610.34;5007521;29;20145;-74
2022/10/21 00:23:52;;;;;;;17.40;13.60;;;;;;;12.95;100.00;100601.63;5007803;29;20057;-74
2022/10/21 00:26:23;;;;;;;20.53;14.43;;;;;;;12.92;100.00;100591.22;5007863;29;20046;-75
2022/10/21 00:28:55;;;;;;;18.60;15.03;;;;;;;12.92;100.00;100596.47;5007450;29;20030;-74
2022/10/21 00:31:27;;;;;;;24.75;15.05;;;;;;;12.98;100.00;100590.22;5006557;29;20058;-74
2022/10/21 00:33:58;;;;;;;17.50;15.47;;;;;;;13.03;100.00;100590.97;5007485;29;20035;-74
2022/10/21 00:36:30;;;;;;;29.27;17.10;;;;;;;12.99;100.00;100597.16;5006917;29;20097;-75
2022/10/21 00:39:02;;;;;;;22.73;14.90;;;;;;;13.02;100.00;100587.47;5005954;29;20400;-74
2022/10/21 00:41:34;;;;;;;21.75;15.93;;;;;;;13.09;100.00;100594.28;5006049;29;20042;-74
2022/10/21 00:44:09;;;;;;;22.47;16.30;;;;;;;13.11;100.00;100592.47;5006756;29;20047;-74
2022/10/21 00:46:55;;;;;;;28.08;17.15;;;;;;;13.11;100.00;100597.69;5007191;29;20356;-75
2022/10/21 00:49:42;;;;;;;24.25;16.67;;;;;;;13.18;100.00;100602.78;5006900;29;20059;-74
2022/10/21 00:52:19;;;;;;;18.17;16.00;;;;;;;13.16;100.00;100608.06;5006370;29;20058;-75
2022/10/21 00:54:56;;;;;;;19.60;15.38;;;;;;;13.20;100.00;100596.63;5007226;29;20026;-73
2022/10/21 00:57:30;;;;;;;22.52;16.95;;;;;;;13.17;100.00;100590.56;5007093;29;20381;-73
2022/10/21 01:00:04;;;;;;;21.73;16.38;;;;;;;13.12;100.00;100581.09;5007180;29;20034;-74
2022/10/21 01:02:35;;;;;;;23.73;17.05;;;;;;;13.10;100.00;100575.03;5006857;29;20039;-74
2022/10/21 01:05:10;;;;;;;21.63;16.73;;;;;;;13.02;100.00;100576.16;5006875;29;20038;-74
2022/10/21 01:07:41;;;;;;;22.05;17.55;;;;;;;12.95;100.00;100571.06;5006716;29;20034;-73
2022/10/21 01:10:13;;;;;;;21.83;17.60;;;;;;;12.92;100.00;100565.06;5006839;29;20045;-73
2022/10/21 01:13:22;;;;;;;25.70;17.70;;;;;;;12.87;100.00;100561.72;5007338;29;20488;-73
2022/10/21 01:16:09;;;;;;;21.92;17.08;;;;;;;12.85;100.00;100566.13;5008356;29;20034;-73
2022/10/21 01:19:05;;;;;;;23.80;16.35;;;;;;;12.78;100.00;100560.19;5016416;29;20035;-73
2022/10/21 01:22:13;;;;;;;21.55;16.15;;;;;;;12.75;100.00;100555.91;5014160;29;20034;-73
2022/10/21 01:24:57;;;;;;;20.30;16.58;;;;;;;12.74;100.00;100543.72;5009518;29;20046;-73
2022/10/21 01:28:04;;;;;;;20.92;17.02;;;;;;;12.71;100.00;100537.72;5007551;29;20035;-73
2022/10/21 01:30:38;;;;;;;24.63;16.38;;;;;;;12.68;100.00;100540.41;5007099;29;20465;-73
2022/10/21 01:33:35;;;;;;;25.45;16.50;;;;;;;12.67;100.00;100539.56;5006933;29;20038;-73
2022/10/21 01:36:09;;;;;;;25.35;15.98;;;;;;;12.63;100.00;100531.81;5006590;29;20444;-73
2022/10/21 01:38:47;;;;;;;25.95;16.55;;;;;;;12.56;100.00;100521.50;5005427;29;20129;-73
2022/10/21 01:41:28;;;;;;;25.50;17.27;;;;;;;12.53;100.00;100520.72;5007052;29;20449;-75
2022/10/21 01:44:09;;;;;;;23.88;16.20;;;;;;;12.47;100.00;100515.66;5006465;29;20039;-74
2022/10/21 01:46:50;;;;;;;23.92;17.27;;;;;;;12.51;100.00;100512.03;5006859;29;20455;-74
2022/10/21 01:49:31;;;;;;;21.67;17.02;;;;;;;12.46;100.00;100509.56;5006664;29;20035;-74
2022/10/21 01:52:04;;;;;;;29.33;17.67;;;;;;;12.49;100.00;100513.84;5006087;29;20038;-74
2022/10/21 01:54:43;;;;;;;23.38;15.48;;;;;;;12.34;100.00;100502.88;5006659;29;20088;-75
2022/10/21 01:57:17;;;;;;;29.75;17.45;;;;;;;12.38;100.00;100501.03;5005484;29;20030;-74
2022/10/21 01:59:50;;;;;;;20.85;17.63;;;;;;;12.36;100.00;100495.00;5006526;29;20039;-74
2022/10/21 02:02:27;;;;;;;27.42;17.33;;;;;;;12.26;100.00;100496.97;5006165;29;20413;-75
2022/10/21 02:05:04;;;;;;;29.38;17.75;;;;;;;12.22;100.00;100503.19;5006180;29;20039;-74
2022/10/21 02:07:36;;;;;;;20.67;16.23;;;;;;;12.15;100.00;100497.22;5005933;29;20103;-75
2022/10/21 02:10:07;;;;;;;23.07;16.63;;;;;;;12.19;100.00;100488.44;5006065;29;20038;-74
2022/10/21 02:12:42;;;;;;;22.73;15.63;;;;;;;12.15;100.00;100493.78;5005757;29;20126;-74
2022/10/21 02:15:15;;;;;;;21.10;16.52;;;;;;;12.12;100.00;100486.00;5005302;29;20038;-74
2022/10/21 02:17:50;;;;;;;;;;;;;;;12.05;100.00;100474.84;5005875;29;20035;-75
2022/10/21 02:20:26;;;;;;;25.48;17.45;;;;;;;12.09;100.00;100466.06;5005688;29;19971;-75
2022/10/21 02:22:58;;;;;;;22.58;16.58;;;;;;;12.01;100.00;100476.69;5006038;29;20484;-74
2022/10/21 02:25:35;;;;;;;25.15;16.02;;;;;;;11.98;100.00;100478.50;5005277;29;20031;-74
2022/10/21 02:28:07;;;;;;;25.33;15.77;;;;;;;11.94;100.00;100474.25;5005585;29;20093;-74
2022/10/21 02:30:52;;;;;;;19.83;15.47;;;;;;;11.91;100.00;100485.56;5005641;29;20042;-74
2022/10/21 02:33:40;;;;;;;20.58;15.90;;;;;;;11.95;100.00;100484.66;5005496;29;20035;-74
2022/10/21 02:36:38;;;;;;;27.58;16.33;;;;;;;11.94;100.00;100490.75;5005147;29;20039;-74
2022/10/21 02:39:22;;;;;;;26.38;15.13;;;;;;;11.96;100.00;100477.66;5005803;29;20039;-73
2022/10/21 02:41:56;;;;;;;18.80;14.93;;;;;;;11.94;100.00;100476.84;5005730;29;20451;-74
2022/10/21 02:44:27;;;;;;;22.20;17.42;;;;;;;11.99;100.00;100485.44;5005678;29;20525;-74
2022/10/21 02:46:59;;;;;;;23.03;16.53;;;;;;;11.98;100.00;100484.59;5004842;29;20043;-74
2022/10/21 02:49:30;;;;;;;24.43;16.87;;;;;;;11.97;100.00;100480.25;5005734;29;20387;-74
2022/10/21 02:52:01;;;;;;;22.60;16.93;;;;;;;11.99;100.00;100467.16;5005696;29;20503;-74
2022/10/21 02:54:33;;;;;;;22.70;15.87;;;;;;;11.91;100.00;100469.06;5005291;29;20063;-73
2022/10/21 02:57:04;;;;;;;23.33;15.93;;;;;;;11.90;100.00;100465.59;5005294;29;20046;-74
2022/10/21 02:59:35;;;;;;;22.67;16.20;;;;;;;11.90;100.00;100464.72;5005333;29;20031;-73
2022/10/21 03:02:07;;;;;;;24.17;15.43;;;;;;;11.90;100.00;100460.38;5005743;29;20121;-74
2022/10/21 03:04:38;;;;;;;19.23;15.47;;;;;;;11.89;100.00;100465.63;5005360;29;20043;-74
2022/10/21 03:07:09;;;;;;;23.20;15.67;;;;;;;11.89;100.00;100465.63;5005268;29;20053;-74
2022/10/21 03:09:41;;;;;;;31.50;16.43;;;;;;;11.86;100.00;100471.75;5007891;29;20027;-74
2022/10/21 03:12:12;;;;;;;22.40;16.07;;;;;;;11.80;100.00;100471.91;5008799;29;20042;-74
2022/10/21 03:14:43;;;;;;;23.10;15.33;;;;;;;11.80;100.00;100466.69;5007325;29;20041;-74
2022/10/21 03:17:15;;;;;;;22.77;15.43;;;;;;;11.76;100.00;100457.22;5008691;29;20392;-73
2022/10/21 03:19:46;;;;;;;21.20;16.73;;;;;;;11.74;100.00;100459.88;5008974;29;20039;-74
2022/10/21 03:22:17;;;;;;;21.77;15.43;;;;;;;11.71;100.00;100464.31;5008657;29;20042;-74
2022/10/21 03:24:49;;;;;;;21.33;14.73;;;;;;;11.70;100.00;100467.78;5007406;29;20111;-74
2022/10/21 03:27:20;;;;;;;23.07;14.87;;;;;;;11.71;100.00;100466.91;5008161;29;20472;-74
2022/10/21 03:29:51;;;;;;;20.37;15.33;;;;;;;11.71;100.00;100472.13;5008577;29;20152;-74
2022/10/21 03:32:23;;;;;;;23.50;15.43;;;;;;;11.70;100.00;100470.41;5008619;29;20043;-74
2022/10/21 03:34:54;;;;;;;23.00;16.13;;;;;;;11.65;100.00;100473.97;5008752;29;20078;-73
2022/10/21 03:37:26;;;;;;;21.00;14.63;;;;;;;11.61;100.00;100471.47;5008935;29;20034;-74
2022/10/21 03:39:57;;;;;;;21.10;15.03;;;;;;;11.62;100.00;100457.50;5008334;29;20091;-73
2022/10/21 03:42:28;;;;;;;22.47;15.50;;;;;;;11.59;100.00;100465.41;5008280;29;20039;-73
2022/10/21 03:45:00;;;;;;;18.73;14.83;;;;;;;11.55;100.00;100462.03;5008101;29;20086;-74
2022/10/21 03:47:31;;;;;;;27.97;16.43;;;;;;;11.58;100.00;100461.94;5008494;29;20043;-74
2022/10/21 03:50:03;;;;;;;22.70;15.47;;;;;;;11.53;100.00;100461.19;5008198;29;20075;-74
2022/10/21 03:52:34;;;;;;;27.80;15.07;;;;;;;11.53;100.00;100461.19;5007833;29;20039;-73
2022/10/21 03:55:06;;;;;;;21.97;14.93;;;;;;;11.50;100.00;100454.28;5008001;29;20127;-73
2022/10/21 03:57:37;;;;;;;18.33;13.80;;;;;;;11.48;100.00;100450.00;5007680;29;20175;-74
2022/10/21 04:00:09;;;;;;;22.90;14.80;;;;;;;11.50;100.00;100451.66;5007784;29;20082;-74
2022/10/21 04:02:41;;;;;;;17.35;13.10;;;;;;;11.41;100.00;100438.81;5008218;29;20079;-74
2022/10/21 04:05:13;;;;;;;20.00;13.70;;;;;;;11.42;100.00;100456.22;5008009;29;20035;-74
2022/10/21 04:07:45;;;;;;;23.77;13.02;;;;;;;11.44;100.00;100458.78;5007851;29;20027;-73
2022/10/21 04:10:16;;;;;;;18.63;12.83;;;;;;;11.43;100.00;100460.53;5007818;29;20068;-74
2022/10/21 04:12:48;;;;;;;18.60;11.60;;;;;;;11.40;100.00;100454.50;5007750;29;20038;-73
2022/10/21 04:15:19;;;;;;;17.20;12.03;;;;;;;11.40;100.00;100462.34;5007632;29;20039;-73
2022/10/21 04:17:50;;;;;;;17.30;11.00;;;;;;;11.40;100.00;100463.22;5007402;29;20404;-73
2022/10/21 04:20:22;;;;;;;18.23;11.73;;;;;;;11.32;100.00;100457.31;5007295;29;20096;-73
2022/10/21 04:22:53;;;;;;;14.57;10.83;;;;;;;11.32;100.00;100454.69;5007750;29;20083;-74
2022/10/21 04:25:25;;;;;;;13.73;10.63;;;;;;;11.25;100.00;100448.75;5007832;29;20129;-74
2022/10/21 04:27:57;;;;;;;19.55;11.10;;;;;;;11.29;100.00;100449.53;4991651;29;20027;-74
2022/10/21 04:30:28;;;;;;;17.73;10.17;;;;;;;11.24;100.00;100457.47;5007451;29;20031;-74
2022/10/21 04:33:00;;;;;;;20.90;10.87;;;;;;;11.19;100.00;100461.03;5007074;29;20039;-73
2022/10/21 04:35:31;;;;;;;14.07;10.10;;;;;;;11.22;100.00;100469.69;5007176;29;20037;-74
2022/10/21 04:38:02;;;;;;;17.60;10.60;;;;;;;11.22;100.00;100469.69;5007484;29;20472;-73
2022/10/21 04:40:34;;;;;;;15.77;9.23;;;;;;;11.20;100.00;100471.44;5005903;29;20042;-73
2022/10/21 04:43:05;;;;;;;17.90;10.07;;;;;;;11.18;100.00;100462.81;5007505;29;20039;-74
2022/10/21 04:45:38;;;;;;;16.73;9.50;;;;;;;11.15;100.00;100475.91;5007305;29;20074;-74
2022/10/21 04:48:12;;;;;;;13.90;10.25;;;;;;;11.21;100.00;100475.78;5007007;29;20056;-74
2022/10/21 04:50:43;;;;;;;15.35;8.77;;;;;;;11.28;100.00;100469.53;5007638;29;20070;-73
2022/10/21 04:53:15;;;;;;;12.37;8.93;;;;;;;11.29;100.00;100466.03;5007767;29;20049;-74
2022/10/21 04:55:53;;;;;;;11.67;8.37;;;;;;;11.29;100.00;100453.00;5008117;29;20045;-74
2022/10/21 04:58:24;;;;;;;12.95;8.07;;;;;;;11.34;100.00;100454.66;5008049;29;20034;-72
2022/10/21 05:00:55;;;;;;;12.00;8.00;;;;;;;11.37;100.00;100452.84;4995172;29;20034;-73
2022/10/21 05:03:27;;;;;;;16.30;7.60;;;;;;;11.38;100.00;100453.69;5009645;29;20134;-73
2022/10/21 05:05:58;;;;;;;18.60;8.70;;;;;;;11.41;100.00;100454.47;5007751;29;20043;-73
2022/10/21 05:08:30;;;;;;;14.20;7.97;;;;;;;11.44;100.00;100459.63;5007052;29;20506;-73
2022/10/21 05:11:01;;;;;;;14.70;7.60;;;;;;;11.40;100.00;100457.13;5006556;29;20538;-73
2022/10/21 05:13:33;;;;;;;12.77;7.63;;;;;;;11.45;100.00;100455.28;5006650;29;20481;-73
2022/10/21 05:16:05;;;;;;;11.57;6.80;;;;;;;11.44;100.00;100457.03;5006408;29;20070;-73
2022/10/21 05:18:36;;;;;;;10.30;7.37;;;;;;;11.46;100.00;100455.25;5006674;29;20034;-73
2022/10/21 05:21:07;;;;;;;13.97;7.00;;;;;;;11.48;100.00;100458.69;5005405;29;20292;-73
2022/10/21 05:23:39;;;;;;;14.80;7.37;;;;;;;11.45;100.00;100447.47;5006525;29;20095;-73
2022/10/21 05:26:10;;;;;;;9.77;7.00;;;;;;;11.43;100.00;100441.41;5005860;29;20360;-73
2022/10/21 05:28:42;;;;;;;10.80;6.50;;;;;;;11.43;100.00;100446.63;5007261;29;20038;-74
2022/10/21 05:31:13;;;;;;;9.53;6.63;;;;;;;11.41;100.00;100436.22;5005534;29;20066;-73
2022/10/21 05:33:44;;;;;;;11.70;7.00;;;;;;;11.39;100.00;100440.59;5006603;29;20138;-73
2022/10/21 05:36:16;;;;;;;13.73;7.17;;;;;;;11.39;100.00;100432.78;5006420;29;20484;-73
2022/10/21 05:38:47;;;;;;;9.27;6.43;;;;;;;11.39;100.00;100424.94;5006793;29;20113;-74
2022/10/21 05:41:19;;;;;;;20.00;7.07;;;;;;;11.37;100.00;100413.69;5006008;29;20034;-74
2022/10/21 05:43:51;;;;;;;15.15;7.78;;;;;;;11.38;100.00;100425.88;5006217;29;20467;-73
2022/10/21 05:46:22;;;;;;;13.20;6.30;;;;;;;11.31;100.00;100424.25;5004375;29;20082;-73
2022/10/21 05:48:54;;;;;;;13.53;7.13;;;;;;;11.30;100.00;100414.69;5006198;29;20034;-74
2022/10/21 05:51:25;;;;;;;12.87;6.27;;;;;;;11.34;100.00;100418.13;5006594;29;20456;-74
2022/10/21 05:53:57;;;;;;;13.60;7.03;;;;;;;11.34;100.00;100411.16;5006011;29;20042;-73
2022/10/21 05:56:28;;;;;;;9.73;5.97;;;;;;;11.29;100.00;100411.25;5005064;29;20480;-74
2022/10/21 05:58:59;;;;;;;12.20;7.03;;;;;;;11.28;100.00;100419.09;5005934;29;20046;-74
2022/10/21 06:01:31;;;;;;;13.10;6.57;;;;;;;11.29;100.00;100415.63;5006211;29;20087;-73
2022/10/21 06:04:02;;;;;;;11.20;6.40;;;;;;;11.31;100.00;100417.28;5005713;29;20095;-74
2022/10/21 06:06:34;;;;;;;7.93;5.97;;;;;;;11.32;100.00;100412.94;5005852;29;20062;-74
2022/10/21 06:09:05;;;;;;;10.07;6.57;;;;;;;11.27;100.00;100417.38;5006117;29;20043;-74
2022/10/21 06:11:36;;;;;;;14.97;6.50;;;;;;;11.27;100.00;100420.00;5005802;29;20039;-74
2022/10/21 06:14:08;;;;;;;9.87;6.23;;;;;;;11.20;100.00;100421.88;5006003;29;20091;-73
2022/10/21 06:16:39;;;;;;;10.07;6.00;;;;;;;11.23;100.00;100415.75;5006452;29;20495;-74
2022/10/21 06:19:11;;;;;;;12.03;6.27;;;;;;;11.21;100.00;100414.94;5005468;29;20543;-73
2022/10/21 06:21:42;;;;;;;9.37;5.53;;;;;;;11.20;100.00;100411.44;5005694;29;20035;-74
2022/10/21 06:24:14;;;;;;;13.83;6.10;;;;;;;11.27;100.00;100405.22;5004444;29;20046;-73
2022/10/21 06:26:48;;;;;;;10.23;5.95;;;;;;;11.24;100.00;100413.09;5006148;29;20031;-72
2022/10/21 06:29:20;;;;;;;10.93;5.85;;;;;;;11.26;100.00;100418.28;5005319;29;20069;-72
2022/10/21 06:31:51;;;;;;;11.13;5.93;;;;;;;11.35;100.00;100414.59;4989225;29;20499;-71
2022/10/21 06:34:22;;;;;;;8.10;5.60;;;;;;;11.35;100.00;100406.78;5005315;29;20092;-72
2022/10/21 06:36:54;;;;;;;9.03;5.07;;;;;;;11.37;100.00;100411.09;5005533;29;20458;-71
2022/10/21 06:39:25;;;;;;;12.33;6.03;;;;;;;11.41;100.00;100419.69;5005534;29;20476;-72
2022/10/21 06:41:56;;;;;;;13.53;5.73;;;;;;;11.49;100.00;100434.31;5005462;29;20449;-71
2022/10/21 06:44:28;;;;;;;14.80;6.00;;;;;;;11.48;100.00;100432.59;5009636;29;20050;-72
2022/10/21 06:46:59;;;;;;;13.57;6.30;;;;;;;11.51;100.00;100439.47;5009545;29;20046;-72
2022/10/21 06:49:30;;;;;;;16.10;5.67;;;;;;;11.60;100.00;100434.06;5009475;29;20445;-71
2022/10/21 06:52:02;;;;;;;17.43;5.77;;;;;;;11.65;100.00;100440.03;5009253;29;20042;-71
2022/10/21 06:54:34;;;;;;;16.13;5.28;;;;;;;11.75;100.00;100445.91;5009122;29;20027;-72
2022/10/21 06:57:05;;;;;;;9.27;4.80;;;;;;;11.81;100.00;100452.75;5009387;29;20035;-72
2022/10/21 06:59:36;;;;;;;18.00;5.33;;;;;;;11.90;100.00;100464.72;5007802;29;20039;-72
2022/10/21 07:02:08;;;;;;;18.03;5.70;;;;;;;11.97;100.00;100461.97;5008964;29;20039;-72
2022/10/21 07:04:43;;;;;;;11.30;4.40;;;;;;;12.06;100.00;100465.25;5008861;29;20038;-72
2022/10/21 07:07:15;;;;;;;14.35;4.57;;;;;;;12.11;100.00;100471.25;5007100;29;20038;-72
2022/10/21 07:09:46;;;;;;;12.53;5.20;;;;;;;12.19;100.00;100479.75;5009004;29;20046;-72
2022/10/21 07:12:18;;;;;;;8.77;4.80;;;;;;;12.24;100.00;100488.31;5008729;29;20487;-72
2022/10/21 07:14:49;;;;;;;9.83;4.43;;;;;;;12.30;100.00;100482.97;5007186;29;20031;-72
2022/10/21 07:17:21;;;;;;;7.97;4.97;;;;;;;12.34;100.00;100487.19;5008485;29;20062;-72
2022/10/21 07:19:53;;;;;;;11.43;4.57;;;;;;;12.37;100.00;100497.56;5008166;29;20050;-72
2022/10/21 07:22:24;;;;;;;10.30;4.20;;;;;;;12.45;100.00;100488.69;5007118;29;20088;-72
2022/10/21 07:24:55;;;;;;;8.03;5.40;;;;;;;12.50;100.00;100492.06;5008667;29;20068;-73
2022/10/21 07:27:27;;;;;;;9.27;4.93;;;;;;;12.56;100.00;100490.13;5007331;29;20049;-72
2022/10/21 07:29:58;;;;;;;9.33;5.23;;;;;;;12.64;100.00;100483.81;5007175;29;20120;-72
2022/10/21 07:32:29;;;;;;;15.47;4.93;;;;;;;12.69;100.00;100488.06;5008252;29;20035;-72
2022/10/21 07:35:01;;;;;;;9.23;5.23;;;;;;;12.81;100.00;100492.09;5008376;29;20035;-72
2022/10/21 07:37:32;;;;;;;14.73;5.83;;;;;;;12.82;100.00;100488.59;5021898;29;20038;-72
2022/10/21 07:40:06;;;;;;;8.37;4.77;;;;;;;12.87;100.00;100493.69;5008051;29;20046;-73
2022/10/21 07:42:38;;;;;;;14.35;4.60;;;;;;;12.95;100.00;100510.03;5008248;29;20544;-72
2022/10/21 07:45:09;;;;;;;8.73;4.87;;;;;;;12.98;100.00;100509.13;5007809;29;20059;-72
2022/10/21 07:47:41;;;;;;;14.80;5.03;;;;;;;13.02;100.00;100511.59;5006414;29;20037;-72
2022/10/21 07:50:13;;;;;;;11.63;5.27;;;;;;;13.04;100.00;100511.53;5007684;29;20039;-72
2022/10/21 07:52:44;;;;;;;10.02;4.70;;;;;;;13.08;100.00;100515.81;5008220;29;20030;-73
2022/10/21 07:55:16;;;;;;;9.80;4.50;;;;;;;13.12;100.00;100518.31;5005511;29;20030;-72
2022/10/21 07:57:47;;;;;;;11.50;5.93;;;;;;;13.18;100.00;100524.25;5007495;29;20066;-72
2022/10/21 08:00:19;;;;;;;10.87;4.97;;;;;;;13.22;100.00;100526.75;5007333;29;20067;-72
2022/10/21 08:02:54;;;;;;;12.53;6.10;;;;;;;13.27;100.00;100524.00;5007263;29;20041;-73
2022/10/21 08:05:25;;;;;;;12.93;5.30;;;;;;;13.31;100.00;100521.25;5007430;29;20045;-73
2022/10/21 08:07:57;;;;;;;15.37;6.93;;;;;;;13.31;100.00;100516.03;5007526;29;20147;-73
2022/10/21 08:10:29;;;;;;;10.07;5.10;;;;;;;13.31;100.00;100505.56;5007186;29;20031;-73
2022/10/21 08:13:00;;;;;;;10.10;5.20;;;;;;;13.27;100.00;100509.16;5006127;29;20076;-72
2022/10/21 08:15:31;;;;;;;12.53;5.00;;;;;;;13.26;100.00;100499.56;5007298;29;20055;-72
2022/10/21 08:18:03;;;;;;;11.50;5.33;;;;;;;13.23;100.00;100501.41;5007389;29;20039;-73
2022/10/21 08:20:42;;;;;;;14.90;5.53;;;;;;;13.22;100.00;100504.97;5007348;29;20030;-73
2022/10/21 08:23:16;;;;;;;12.38;5.70;;;;;;;13.19;100.00;100499.81;5006861;29;20045;-72
2022/10/21 08:25:54;;;;;;;13.90;5.38;;;;;;;13.17;100.00;100515.56;5007176;29;20088;-73
2022/10/21 08:28:26;;;;;;;12.20;5.70;;;;;;;13.19;100.00;100531.22;5006819;29;20039;-73
2022/10/21 08:31:08;;;;;;;10.00;5.10;;;;;;;13.20;100.00;100532.91;5008088;29;20091;-73
2022/10/21 08:33:40;;;;;;;11.38;5.15;;;;;;;13.19;100.00;100526.84;5009013;29;20051;-72
2022/10/21 08:36:17;;;;;;;14.95;5.65;;;;;;;13.21;100.00;100532.03;5010759;29;20063;-72
2022/10/21 08:38:48;;;;;;;14.15;5.88;;;;;;;13.21;100.00;100526.78;5009452;29;20113;-73
2022/10/21 08:41:28;;;;;;;9.83;5.87;;;;;;;13.26;100.00;100528.38;5007274;29;20134;-73
2022/10/21 08:44:12;;;;;;;11.55;6.00;;;;;;;13.27;100.00;100537.94;5006497;29;20035;-73
2022/10/21 08:46:52;;;;;;;14.52;6.03;;;;;;;13.30;100.00;100540.47;5006964;29;20043;-72
2022/10/21 08:49:28;;;;;;;10.55;5.88;;;;;;;13.29;100.00;100533.50;5007022;29;20058;-72
2022/10/21 08:52:05;;;;;;;11.75;6.28;;;;;;;13.31;100.00;100533.47;5007169;29;20455;-72
2022/10/21 08:54:46;;;;;;;15.85;6.80;;;;;;;13.30;100.00;100530.00;5006000;29;20489;-72
2022/10/21 08:57:18;;;;;;;11.10;5.70;;;;;;;13.34;100.00;100541.28;5005390;29;20457;-72
2022/10/21 08:59:50;;;;;;;10.38;5.72;;;;;;;13.42;100.00;100554.16;5006260;29;20039;-71
2022/10/21 09:02:33;;;;;;;12.27;6.57;;;;;;;13.42;100.00;100554.16;5004852;29;20190;-72
2022/10/21 09:05:29;;;;;;;15.63;6.43;;;;;;;13.38;100.00;100557.75;5006127;29;20034;-72
2022/10/21 09:08:12;;;;;;;11.50;5.65;;;;;;;13.34;100.00;100564.84;5006217;29;20038;-72
2022/10/21 09:10:53;;;;;;;10.27;5.40;;;;;;;13.38;100.00;100563.88;5006177;29;20037;-72
2022/10/21 09:13:56;;;;;;;9.02;5.82;;;;;;;13.39;100.00;100547.22;5006309;29;20042;-72
2022/10/21 09:16:57;;;;;;;12.45;5.20;;;;;;;13.49;100.00;100546.09;5003985;29;20084;-72
2022/10/21 09:19:55;;;;;;;10.40;4.05;;;;;;;13.55;100.00;100536.34;5005752;29;20035;-72
2022/10/21 09:22:33;;;;;;;4.20;2.58;;;;;;;13.61;100.00;100523.91;5005913;29;20053;-72
2022/10/21 09:25:18;;;;;;;5.97;2.90;;;;;;;13.69;100.00;100539.41;5005821;29;20480;-72
2022/10/21 09:27:50;;;;;;;4.95;2.67;;;;;;;13.85;100.00;100543.28;5005804;29;20126;-72
2022/10/21 09:30:22;;;;;;;6.90;2.33;;;;;;;14.04;100.00;100537.50;5005888;29;20447;-72
2022/10/21 09:32:58;;;;;;;7.28;2.08;;;;;;;14.27;100.00;100544.63;5004532;29;20042;-72
2022/10/21 09:36:07;;;;;;;5.00;2.63;;;;;;;14.49;100.00;100544.78;5006017;29;20027;-70
2022/10/21 09:38:45;;;;;;;4.90;2.38;;;;;;;14.64;100.00;100537.34;5006315;29;20081;-71
2022/10/21 09:41:28;;;;;;;5.53;2.20;;;;;;;14.79;100.00;100528.09;5006100;29;20379;-72
2022/10/21 09:43:59;;;;;;;7.68;2.50;;;;;;;14.90;100.00;100539.91;5005981;29;20122;-71
2022/10/21 09:46:31;;;;;;;7.20;2.57;;;;;;;14.99;100.00;100537.88;5005755;29;20142;-71
2022/10/21 09:49:02;;;;;;;6.63;3.13;;;;;;;15.14;100.00;100532.94;5005400;29;20050;-71
2022/10/21 09:51:38;;;;;;;8.37;3.00;;;;;;;15.22;100.00;100535.31;5005852;29;20030;-72
2022/10/21 09:54:18;;;;;;;8.20;3.15;;;;;;;15.32;100.00;100535.81;5005640;29;20030;-72
2022/10/21 09:57:00;;;;;;;10.88;4.63;;;;;;;15.53;100.00;100543.84;5005898;29;20032;-72
2022/10/21 09:59:32;;;;;;;10.57;4.28;;;;;;;15.56;100.00;100541.94;5005079;29;20035;-73
2022/10/21 10:02:13;;;;;;;9.77;4.20;;;;;;;15.72;100.00;100551.88;5005117;29;20456;-73
2022/10/21 10:04:45;;;;;;;14.38;4.53;;;;;;;15.74;100.00;100552.69;5005006;29;20264;-73
2022/10/21 10:07:29;;;;;;;14.53;5.20;;;;;;;15.85;100.00;100556.63;5005006;29;20031;-73
2022/10/21 10:10:02;;;;;;;11.85;4.60;;;;;;;15.92;100.00;100548.50;5005370;29;20042;-73
2022/10/21 10:12:33;;;;;;;9.25;4.53;;;;;;;16.01;100.00;100550.78;5005146;29;20034;-73
2022/10/21 10:15:24;;;;;;;11.47;4.17;;;;;;;16.13;100.00;100549.44;5003756;29;20504;-73
2022/10/21 10:17:56;;;;;;;6.43;3.60;;;;;;;16.20;100.00;100557.03;5003035;29;20068;-73
2022/10/21 10:20:27;;;;;;;7.33;3.67;;;;;;;16.38;100.00;100570.38;5004374;29;20069;-73
2022/10/21 10:22:59;;;;;;;13.27;5.37;;;;;;;16.54;100.00;100557.44;5005048;29;20188;-73
2022/10/21 10:25:32;;;;;;;12.23;4.80;;;;;;;16.91;100.00;100571.72;5005420;29;20043;-74
2022/10/21 10:28:23;;;;;;;9.68;4.15;;;;;;;17.31;100.00;100567.38;5004666;29;20038;-73
2022/10/21 10:30:55;;;;;;;12.02;5.40;;;;;;;17.43;100.00;100566.78;5004935;29;20035;-73
2022/10/21 10:33:31;;;;;;;15.18;5.35;;;;;;;17.76;99.96;100574.13;5005012;29;20038;-74
2022/10/21 10:36:05;;;;;;;9.40;5.05;;;;;;;18.09;96.74;100575.28;5005056;29;20073;-74
2022/10/21 10:38:41;;;;;;;8.93;4.47;;;;;;;18.15;95.21;100564.44;5004823;29;20061;-73
2022/10/21 10:41:17;;;;;;;8.50;4.50;;;;;;;18.13;93.22;100564.50;5005414;29;20038;-76
2022/10/21 10:43:52;;;;;;;9.35;4.18;;;;;;;18.17;92.49;100566.06;5005009;29;20077;-74
2022/10/21 10:46:23;;;;;;;11.98;4.60;;;;;;;18.42;93.13;100575.44;5005085;29;20059;-73
2022/10/21 10:49:02;;;;;;;11.63;3.90;;;;;;;18.52;90.71;100570.56;5004933;29;20119;-74
2022/10/21 10:51:35;;;;;;;16.52;4.68;;;;;;;18.75;88.57;100574.69;5005028;29;20031;-74
2022/10/21 10:54:06;;;;;;;;;;;;;;;19.39;94.09;100570.53;5005456;29;20088;-73
2022/10/21 10:56:47;;;;;;;8.43;3.83;;;;;;;19.89;83.88;100568.75;5004760;29;19921;-73
2022/10/21 10:59:31;;;;;;;8.43;3.72;;;;;;;20.82;79.70;100576.75;5005063;29;20043;-72
2022/10/21 11:02:08;;;;;;;12.10;5.18;;;;;;;21.19;75.21;100570.13;5005623;29;20038;-73
2022/10/21 11:05:03;;;;;;;12.20;4.60;;;;;;;21.16;74.60;100562.38;5004609;29;20031;-72
2022/10/21 11:07:41;;;;;;;8.13;3.60;;;;;;;20.99;74.24;100560.72;5004347;29;20126;-72
2022/10/21 11:10:30;;;;;;;6.65;3.78;;;;;;;21.97;72.16;100558.25;5004953;29;20046;-72
2022/10/21 11:13:08;;;;;;;11.05;3.83;;;;;;;21.85;70.19;100551.94;5004709;29;20092;-72
2022/10/21 11:15:45;;;;;;;9.18;3.80;;;;;;;22.07;69.26;100542.59;5005025;29;20035;-73
2022/10/21 11:18:47;;;;;;;5.43;3.40;;;;;;;22.26;70.14;100543.09;5005043;29;20039;-72
2022/10/21 11:22:04;;;;;;;6.05;3.72;;;;;;;22.21;70.89;100537.22;5004433;29;20030;-73
2022/10/21 11:25:04;;;;;;;8.82;3.50;;;;;;;22.97;64.52;100543.69;5003797;29;20042;-73
2022/10/21 11:27:41;;;;;;;6.07;2.90;;;;;;;24.42;59.89;100546.69;5004713;29;20039;-73
2022/10/21 11:30:33;;;;;;;5.45;2.70;;;;;;;25.63;59.12;100547.19;5006036;29;20563;-73
2022/10/21 11:33:32;;;;;;;5.65;3.03;;;;;;;26.01;57.54;100559.28;5008575;29;20088;-73
2022/10/21 11:36:25;;;;;;;6.80;2.50;;;;;;;26.54;55.25;100557.66;5008138;29;20086;-73
2022/10/21 11:39:34;;;;;;;4.75;2.40;;;;;;;27.67;52.65;100561.44;5008263;29;20126;-73
2022/10/21 11:42:21;;;;;;;4.95;2.05;;;;;;;27.43;48.63;100552.72;5008323;29;20471;-72
2022/10/21 11:45:23;;;;;;;4.75;2.15;;;;;;;27.78;49.65;100554.13;5008276;29;20080;-71
2022/10/21 11:48:00;;;;;;;3.47;1.95;;;;;;;26.86;48.50;100554.13;5008431;29;20030;-72